sensor_id;sensor_type;location;lat;lon;timestamp;temperature;humidity
21302;DHT22;10810;48.270;9.996;2022-09-09T00:02:20;17.90;92.80
21302;DHT22;10810;48.270;9.996;2022-09-09T00:05:14;17.90;92.80
21302;DHT22;10810;48.270;9.996;2022-09-09T00:08:04;17.90;92.70
21302;DHT22;10810;48.270;9.996;2022-09-09T00:14:31;17.70;92.60
21302;DHT22;10810;48.270;9.996;2022-09-09T00:16:53;17.80;92.70
21302;DHT22;10810;48.270;9.996;2022-09-09T00:19:41;17.80;92.50
21302;DHT22;10810;48.270;9.996;2022-09-09T00:22:57;17.80;92.50
21302;DHT22;10810;48.270;9.996;2022-09-09T00:25:29;17.80;92.40
21302;DHT22;10810;48.270;9.996;2022-09-09T00:28:40;17.80;92.40
21302;DHT22;10810;48.270;9.996;2022-09-09T00:31:26;17.70;92.40
21302;DHT22;10810;48.270;9.996;2022-09-09T00:34:18;17.70;92.50
21302;DHT22;10810;48.270;9.996;2022-09-09T00:36:50;17.80;92.60
21302;DHT22;10810;48.270;9.996;2022-09-09T00:42:42;17.70;92.40
21302;DHT22;10810;48.270;9.996;2022-09-09T00:45:32;17.70;92.50
21302;DHT22;10810;48.270;9.996;2022-09-09T00:50:31;17.60;92.40
21302;DHT22;10810;48.270;9.996;2022-09-09T00:54:39;17.60;92.30
21302;DHT22;10810;48.270;9.996;2022-09-09T00:57:28;17.60;92.30
21302;DHT22;10810;48.270;9.996;2022-09-09T01:00:23;17.60;92.20
21302;DHT22;10810;48.270;9.996;2022-09-09T01:06:13;17.50;92.20
21302;DHT22;10810;48.270;9.996;2022-09-09T01:09:10;17.50;92.20
21302;DHT22;10810;48.270;9.996;2022-09-09T01:12:01;17.50;92.20
21302;DHT22;10810;48.270;9.996;2022-09-09T01:14:53;17.50;92.20
21302;DHT22;10810;48.270;9.996;2022-09-09T01:27:23;17.40;92.30
21302;DHT22;10810;48.270;9.996;2022-09-09T01:30:38;17.40;92.20
21302;DHT22;10810;48.270;9.996;2022-09-09T01:33:23;17.30;92.20
21302;DHT22;10810;48.270;9.996;2022-09-09T01:36:43;17.30;92.10
21302;DHT22;10810;48.270;9.996;2022-09-09T01:39:05;17.30;92.50
21302;DHT22;10810;48.270;9.996;2022-09-09T01:43:26;17.30;92.10
21302;DHT22;10810;48.270;9.996;2022-09-09T01:45:10;17.30;92.00
21302;DHT22;10810;48.270;9.996;2022-09-09T01:48:34;17.30;92.00
21302;DHT22;10810;48.270;9.996;2022-09-09T01:51:23;17.30;92.10
21302;DHT22;10810;48.270;9.996;2022-09-09T01:54:17;17.20;92.10
21302;DHT22;10810;48.270;9.996;2022-09-09T01:57:05;17.20;92.10
21302;DHT22;10810;48.270;9.996;2022-09-09T01:59:47;17.20;92.10
21302;DHT22;10810;48.270;9.996;2022-09-09T02:06:00;17.10;92.00
21302;DHT22;10810;48.270;9.996;2022-09-09T02:08:53;17.10;92.10
21302;DHT22;10810;48.270;9.996;2022-09-09T02:12:47;17.10;92.30
21302;DHT22;10810;48.270;9.996;2022-09-09T02:15:07;17.10;92.20
21302;DHT22;10810;48.270;9.996;2022-09-09T02:21:31;17.10;92.10
21302;DHT22;10810;48.270;9.996;2022-09-09T02:24:36;17.00;92.10
21302;DHT22;10810;48.270;9.996;2022-09-09T02:30:32;17.00;92.10
21302;DHT22;10810;48.270;9.996;2022-09-09T02:33:50;17.00;92.20
21302;DHT22;10810;48.270;9.996;2022-09-09T02:36:24;17.00;92.20
21302;DHT22;10810;48.270;9.996;2022-09-09T02:38:58;17.00;92.10
21302;DHT22;10810;48.270;9.996;2022-09-09T02:41:52;17.00;92.20
21302;DHT22;10810;48.270;9.996;2022-09-09T02:44:23;16.90;92.10
21302;DHT22;10810;48.270;9.996;2022-09-09T02:47:12;17.00;92.20
21302;DHT22;10810;48.270;9.996;2022-09-09T02:58:20;16.90;92.20
21302;DHT22;10810;48.270;9.996;2022-09-09T02:59:26;16.90;92.20
21302;DHT22;10810;48.270;9.996;2022-09-09T03:05:17;16.90;92.00
21302;DHT22;10810;48.270;9.996;2022-09-09T03:07:44;16.80;92.10
21302;DHT22;10810;48.270;9.996;2022-09-09T03:10:36;16.80;92.20
21302;DHT22;10810;48.270;9.996;2022-09-09T03:13:20;16.80;92.40
21302;DHT22;10810;48.270;9.996;2022-09-09T03:16:12;16.80;92.30
21302;DHT22;10810;48.270;9.996;2022-09-09T03:18:54;16.80;92.40
21302;DHT22;10810;48.270;9.996;2022-09-09T03:21:41;16.80;92.50
21302;DHT22;10810;48.270;9.996;2022-09-09T03:24:11;16.80;92.40
21302;DHT22;10810;48.270;9.996;2022-09-09T03:26:39;16.80;92.60
21302;DHT22;10810;48.270;9.996;2022-09-09T03:29:08;16.80;92.50
21302;DHT22;10810;48.270;9.996;2022-09-09T03:32:24;16.80;92.60
21302;DHT22;10810;48.270;9.996;2022-09-09T03:35:39;16.70;92.80
21302;DHT22;10810;48.270;9.996;2022-09-09T03:45:10;16.70;92.80
21302;DHT22;10810;48.270;9.996;2022-09-09T03:48:06;16.70;93.00
21302;DHT22;10810;48.270;9.996;2022-09-09T03:51:08;16.70;93.50
21302;DHT22;10810;48.270;9.996;2022-09-09T03:53:44;16.70;93.30
21302;DHT22;10810;48.270;9.996;2022-09-09T03:57:12;16.70;93.30
21302;DHT22;10810;48.270;9.996;2022-09-09T03:59:23;16.80;93.50
21302;DHT22;10810;48.270;9.996;2022-09-09T04:01:52;16.70;93.30
21302;DHT22;10810;48.270;9.996;2022-09-09T04:04:46;16.60;93.30
21302;DHT22;10810;48.270;9.996;2022-09-09T04:07:20;16.60;93.50
21302;DHT22;10810;48.270;9.996;2022-09-09T04:10:18;16.60;93.50
21302;DHT22;10810;48.270;9.996;2022-09-09T04:13:22;16.70;93.60
21302;DHT22;10810;48.270;9.996;2022-09-09T04:16:14;16.60;93.70
21302;DHT22;10810;48.270;9.996;2022-09-09T04:19:13;16.60;93.60
21302;DHT22;10810;48.270;9.996;2022-09-09T04:21:40;16.60;93.70
21302;DHT22;10810;48.270;9.996;2022-09-09T04:25:47;16.60;93.80
21302;DHT22;10810;48.270;9.996;2022-09-09T04:27:36;16.60;93.90
21302;DHT22;10810;48.270;9.996;2022-09-09T04:30:32;16.60;93.90
21302;DHT22;10810;48.270;9.996;2022-09-09T04:33:40;16.60;94.30
21302;DHT22;10810;48.270;9.996;2022-09-09T04:49:04;16.60;94.70
21302;DHT22;10810;48.270;9.996;2022-09-09T04:52:15;16.60;94.70
21302;DHT22;10810;48.270;9.996;2022-09-09T04:54:41;16.60;94.70
21302;DHT22;10810;48.270;9.996;2022-09-09T04:57:41;16.60;94.80
21302;DHT22;10810;48.270;9.996;2022-09-09T05:00:01;16.60;94.90
21302;DHT22;10810;48.270;9.996;2022-09-09T05:02:39;16.60;94.90
21302;DHT22;10810;48.270;9.996;2022-09-09T05:05:31;16.60;95.00
21302;DHT22;10810;48.270;9.996;2022-09-09T05:08:01;16.60;95.00
21302;DHT22;10810;48.270;9.996;2022-09-09T05:10:30;16.60;95.20
21302;DHT22;10810;48.270;9.996;2022-09-09T05:12:59;16.60;95.40
21302;DHT22;10810;48.270;9.996;2022-09-09T05:15:26;16.60;95.60
21302;DHT22;10810;48.270;9.996;2022-09-09T05:18:05;16.60;95.80
21302;DHT22;10810;48.270;9.996;2022-09-09T05:20:44;16.60;96.00
21302;DHT22;10810;48.270;9.996;2022-09-09T05:23:13;16.60;96.10
21302;DHT22;10810;48.270;9.996;2022-09-09T05:28:40;16.60;96.30
21302;DHT22;10810;48.270;9.996;2022-09-09T05:31:09;16.60;96.40
21302;DHT22;10810;48.270;9.996;2022-09-09T05:33:39;16.60;96.40
21302;DHT22;10810;48.270;9.996;2022-09-09T05:36:35;16.60;96.50
21302;DHT22;10810;48.270;9.996;2022-09-09T05:39:25;16.60;96.50
21302;DHT22;10810;48.270;9.996;2022-09-09T05:41:52;16.60;96.80
21302;DHT22;10810;48.270;9.996;2022-09-09T05:44:22;16.60;96.70
21302;DHT22;10810;48.270;9.996;2022-09-09T05:46:53;16.60;96.90
21302;DHT22;10810;48.270;9.996;2022-09-09T05:49:24;16.60;96.80
21302;DHT22;10810;48.270;9.996;2022-09-09T05:51:52;16.60;97.10
21302;DHT22;10810;48.270;9.996;2022-09-09T05:54:19;16.60;97.10
21302;DHT22;10810;48.270;9.996;2022-09-09T05:56:48;16.60;97.10
21302;DHT22;10810;48.270;9.996;2022-09-09T05:59:19;16.60;97.30
21302;DHT22;10810;48.270;9.996;2022-09-09T06:01:48;16.60;97.40
21302;DHT22;10810;48.270;9.996;2022-09-09T06:04:17;16.60;97.30
21302;DHT22;10810;48.270;9.996;2022-09-09T06:07:12;16.60;97.40
21302;DHT22;10810;48.270;9.996;2022-09-09T06:09:45;16.60;97.40
21302;DHT22;10810;48.270;9.996;2022-09-09T06:12:13;16.70;97.70
21302;DHT22;10810;48.270;9.996;2022-09-09T06:14:40;16.60;97.70
21302;DHT22;10810;48.270;9.996;2022-09-09T06:17:10;16.70;97.90
21302;DHT22;10810;48.270;9.996;2022-09-09T06:19:44;16.70;98.00
21302;DHT22;10810;48.270;9.996;2022-09-09T06:22:16;16.60;98.40
21302;DHT22;10810;48.270;9.996;2022-09-09T06:24:57;16.60;98.10
21302;DHT22;10810;48.270;9.996;2022-09-09T06:27:57;16.60;98.10
21302;DHT22;10810;48.270;9.996;2022-09-09T06:34:26;16.60;98.40
21302;DHT22;10810;48.270;9.996;2022-09-09T07:15:05;16.80;99.90
21302;DHT22;10810;48.270;9.996;2022-09-09T07:20:58;16.80;99.90
21302;DHT22;10810;48.270;9.996;2022-09-09T07:23:54;16.80;99.90
21302;DHT22;10810;48.270;9.996;2022-09-09T07:26:59;16.90;99.80
21302;DHT22;10810;48.270;9.996;2022-09-09T19:47:54;18.70;94.60
21302;DHT22;10810;48.270;9.996;2022-09-09T19:50:35;18.80;94.60
21302;DHT22;10810;48.270;9.996;2022-09-09T19:57:16;18.70;94.80
